x

Pensacola - 115nm Ese Of Pensacola, Fl (42039) Wave Buoy

4:50pm - Wed 24th May 2017 All times are CDT. -5 hours from GMT.

  • Sig Wave height 7.2ft
  • Swell Direction
  • Peak Period 8s
  • Average Period 6s
  • Wind
    20mph, 22mph gusts
  • Sea Temp 77°f
  • Air Temp 76°f
  • Sea Pressure 1003.6mb
  • Pensacola - 115nm Ese Of Pensacola, Fl
  • Pensacola - 115nm Ese Of Pensacola, Fl

More Historic Weather Station data

Upgrade to MSW Pro to gain access to the past 30 days of data for over 8000 Wavebouys and Weather Stations around the globe.

Join Pro

Comparision Forecast

View Surf forecast
   
Wed 05/24 4:50pm 7ft 8s 6s 20 22 mph 1003.6mb 77f 76f
3:50pm 7ft 7s 5s 22 25 mph 1003.4mb 77f 76f
2:50pm 8ft 7s 6s 20 25 mph 1003.3mb 77f 76f
1:50pm 8ft 8s 6s 16 20 mph 1003.4mb 77f 77f
12:50pm 9ft 7s 6s 16 25 mph 1003.7mb 77f 74f
11:50am 9ft 8s 6s 13 18 mph 1004mb 77f 75f
9:50am 5.5ft 6s 5s 25 34 mph 1003.4mb 77f 76f
8:50am 4.5ft 6s 5s 16 18 mph 1004.4mb 76f 75f
7:50am 4.5ft 6s 5s 20 27 mph 1003.7mb 76f 71f
6:50am 4.5ft 7s 5s 18 22 mph 1003mb 76f 77f
5:50am 4.5ft 6s 5s 16 20 mph 1002.7mb 76f 77f
4:50am 4.5ft 6s 5s 13 16 mph 1004.3mb 77f 77f
3:50am 5ft 7s 5s 18 22 mph 1005.6mb 77f 77f
2:50am 5ft 6s 5s 18 22 mph 1006.6mb 77f 77f
1:50am 5.5ft 6s 5s 20 25 mph 1006.8mb 77f 77f
12:50am 6ft 6s 5s 22 27 mph 1007.4mb 77f 77f
Tue 05/23 11:50pm 5ft 6s 5s 20 25 mph 1007.2mb 77f 77f
10:50pm 6ft 6s 5s 25 29 mph 1007.4mb 76f 76f
9:50pm 6ft 6s 5s 27 31 mph 1007.4mb 76f 76f
8:50pm 5ft 6s 5s 25 29 mph 1006.7mb 76f 76f
7:50pm 5ft 6s 5s 22 27 mph 1007.1mb 77f 77f
6:50pm 5.5ft 6s 5s 18 22 mph 1006.9mb 77f 77f
5:50pm 7ft 6s 5s 25 29 mph 1006.7mb 77f 76f
4:50pm 6ft 5s 5s 36 43 mph 1007.1mb 77f 76f
3:50pm 4.5ft 6s 4s 25 31 mph 1008.4mb 77f 77f
2:50pm 5ft 6s 5s 22 29 mph 1008.4mb 78f 78f
1:50pm 4ft 5s 4s 22 27 mph 1008.5mb 78f 78f
12:50pm 4ft 5s 4s 20 25 mph 1009.2mb 78f 78f
11:50am 3.5ft 5s 4s 20 22 mph 1009.7mb 78f 78f
10:50am 3.5ft 4s 4s 18 22 mph 1009.8mb 78f 78f
9:50am 2.5ft 4s 4s 20 25 mph 1009.4mb 77f 78f
8:50am 2.5ft 4s 4s 16 20 mph 1009.5mb 76f 78f
7:50am 2ft 5s 4s 13 18 mph 1010.4mb 76f 77f
6:50am 2ft 5s 4s 13 18 mph 1010.9mb 76f 77f
5:50am 2ft 5s 4s 11 13 mph 1010.7mb 76f 77f
4:50am 1.6ft 5s 4s 9 11 mph 1011mb 76f 77f
3:50am 2ft 8s 5s 9 11 mph 1010.9mb 77f 77f
2:50am 1.6ft 5s 4s 9 11 mph 1011.6mb 77f 77f
1:50am 1.6ft 7s 5s 11 11 mph 1012.2mb 77f 78f
12:50am 1.6ft 8s 5s 9 9 mph 1013.1mb 77f 78f
Mon 05/22 11:50pm 1.6ft 8s 4s 9 9 mph 1013.5mb 77f 77f
10:50pm 1.6ft 8s 4s 2 2 mph 1014.2mb 77f 77f
9:50pm 1.6ft 7s 5s  -  2 mph 1014.2mb 77f 77f
8:50pm 2ft 8s 5s 2 4 mph 1013.7mb 77f 77f
7:50pm 2ft 8s 4s  -  2 mph 1013.8mb 77f 77f
6:50pm 1.6ft 8s 4s 4 4 mph 1013.8mb 77f 78f
5:50pm 1.6ft 8s 5s 7 9 mph 1014mb 78f 78f
4:50pm 1.6ft 8s 5s 7 7 mph 1014.2mb 78f 78f
3:50pm 1.6ft 8s 5s 7 9 mph 1014.4mb 78f 78f
2:50pm 2ft 7s 5s 7 9 mph 1015.4mb 78f 78f
1:50pm 2ft 8s 5s 9 9 mph 1015.7mb 78f 78f
12:50pm 2.5ft 8s 5s 7 7 mph 1016.5mb 78f 78f
11:50am 2.5ft 8s 5s 7 9 mph 1016.5mb 78f 77f
10:50am 2.5ft 8s 5s 2 4 mph 1017mb 78f 77f
9:50am 2.5ft 8s 5s  -  2 mph 1017.3mb 77f 78f
8:50am 2.5ft 8s 5s 2 4 mph 1017.7mb 76f 76f
7:50am 3ft 6s 5s  -  2 mph 1017.4mb 76f 77f
6:50am 3ft 9s 5s 9 11 mph 1016.8mb 76f 77f
5:50am 3ft 8s 6s 13 16 mph 1015.9mb 75f 76f
4:50am 3.5ft 8s 6s 7 9 mph 1016.3mb 76f 76f
3:50am 3ft 7s 5s 2 4 mph 1016.9mb 77f 76f
2:50am 3.5ft 7s 5s 2 4 mph 1017.7mb 77f 76f
1:50am 3.5ft 6s 5s  -  2 mph 1017.9mb 77f 76f
12:50am 3.5ft 7s 5s 2 4 mph 1018.2mb 77f 77f
Sun 05/21 11:50pm 3.5ft 7s 5s 7 7 mph 1017.6mb 77f 77f
10:50pm 3.5ft 8s 5s 7 7 mph 1017.9mb 77f 76f
9:50pm 4ft 9s 5s 9 11 mph 1018.3mb 77f 77f
8:50pm 3.5ft 7s 5s 11 13 mph 1018mb 77f 77f
7:50pm 3.5ft 6s 5s 7 9 mph 1018mb 77f 77f
6:50pm 3.5ft 8s 4s 18 25 mph 1015.2mb 77f 78f
5:50pm 3.5ft 8s 4s 22 27 mph 1013.8mb 77f 77f
4:50pm 3.5ft 5s 4s 11 13 mph 1016.6mb 77f 77f
3:50pm 3.5ft 7s 5s 13 16 mph 1017.9mb 77f 77f
2:50pm 4.5ft 5s 5s 13 16 mph 1018.1mb 76f 78f
1:50pm 4ft 4s 4s 16 18 mph 1017.8mb 76f 78f
12:50pm 4ft 5s 4s 16 20 mph 1017.7mb 76f 77f
11:50am 4.5ft 4s 4s 22 29 mph 1018.1mb 76f 77f
10:50am 5ft 6s 4s 22 27 mph 1018.1mb 76f 77f
9:50am 5ft 6s 4s 29 36 mph 1017.4mb 76f 76f
8:50am 6ft 5s 5s 27 31 mph 1019mb 77f 75f
7:50am 7ft 6s 5s 27 31 mph 1018.3mb 77f 74f
6:50am 6.5ft 6s 5s 31 38 mph 1016.2mb 78f 75f
5:50am  -   -   -  34 38 mph 1016.7mb 78f 71f
4:50am 3ft 6s 5s 22 43 mph 1015.8mb 78f 75f
3:50am 3.5ft 7s 5s 9 9 mph 1016.8mb 78f 78f
2:50am 3.5ft 7s 5s 11 13 mph 1016.5mb 78f 78f
1:50am 3.5ft 6s 5s 11 13 mph 1016.8mb 78f 78f
12:50am 4ft 7s 5s 16 18 mph 1016.5mb 78f 78f
Sat 05/20 11:50pm 4.5ft 7s 5s 16 18 mph 1016.5mb 78f 78f